sensor_id;sensor_type;location;lat;lon;timestamp;pressure;altitude;pressure_sealevel;temperature;humidity
9421;BME280;4749;51.398;5.466;2024-02-16T00:00:13;100810.16;;;12.20;100.00
9421;BME280;4749;51.398;5.466;2024-02-16T00:02:41;100811.91;;;12.21;100.00
9421;BME280;4749;51.398;5.466;2024-02-16T00:05:10;100814.56;;;12.21;100.00
9421;BME280;4749;51.398;5.466;2024-02-16T00:07:40;100815.41;;;12.23;100.00
9421;BME280;4749;51.398;5.466;2024-02-16T00:10:08;100809.25;;;12.22;100.00
9421;BME280;4749;51.398;5.466;2024-02-16T00:12:37;100803.97;;;12.24;100.00
9421;BME280;4749;51.398;5.466;2024-02-16T00:15:06;100806.63;;;12.24;100.00
9421;BME280;4749;51.398;5.466;2024-02-16T00:17:33;100808.34;;;12.26;100.00
9421;BME280;4749;51.398;5.466;2024-02-16T00:20:01;100803.94;;;12.27;100.00
9421;BME280;4749;51.398;5.466;2024-02-16T00:22:28;100805.72;;;12.29;100.00
9421;BME280;4749;51.398;5.466;2024-02-16T00:24:55;100801.31;;;12.30;100.00
9421;BME280;4749;51.398;5.466;2024-02-16T00:27:22;100803.97;;;12.30;100.00
9421;BME280;4749;51.398;5.466;2024-02-16T00:29:50;100800.44;;;12.29;100.00
9421;BME280;4749;51.398;5.466;2024-02-16T00:32:17;100802.22;;;12.29;100.00
9421;BME280;4749;51.398;5.466;2024-02-16T00:34:44;100803.94;;;12.27;100.00
9421;BME280;4749;51.398;5.466;2024-02-16T00:37:11;100799.59;;;12.23;100.00
9421;BME280;4749;51.398;5.466;2024-02-16T00:39:39;100799.63;;;12.17;100.00
9421;BME280;4749;51.398;5.466;2024-02-16T00:42:08;100805.81;;;12.11;100.00
9421;BME280;4749;51.398;5.466;2024-02-16T00:44:35;100811.97;;;12.07;100.00
9421;BME280;4749;51.398;5.466;2024-02-16T00:47:03;100798.78;;;12.01;100.00
9421;BME280;4749;51.398;5.466;2024-02-16T00:49:33;100797.94;;;11.97;100.00
9421;BME280;4749;51.398;5.466;2024-02-16T00:52:00;100794.44;;;11.92;100.00
9421;BME280;4749;51.398;5.466;2024-02-16T00:54:29;100796.22;;;11.89;100.00
9421;BME280;4749;51.398;5.466;2024-02-16T00:56:56;100790.97;;;11.84;100.00
9421;BME280;4749;51.398;5.466;2024-02-16T00:59:31;100788.31;;;11.79;100.00
9421;BME280;4749;51.398;5.466;2024-02-16T01:01:59;100790.06;;;11.76;100.00
9421;BME280;4749;51.398;5.466;2024-02-16T01:04:26;100801.50;;;11.73;100.00
9421;BME280;4749;51.398;5.466;2024-02-16T01:06:53;100798.88;;;11.70;100.00
9421;BME280;4749;51.398;5.466;2024-02-16T01:09:20;100790.09;;;11.65;100.00
9421;BME280;4749;51.398;5.466;2024-02-16T01:11:47;100793.66;;;11.61;100.00
9421;BME280;4749;51.398;5.466;2024-02-16T01:14:15;100794.50;;;11.57;100.00
9421;BME280;4749;51.398;5.466;2024-02-16T01:21:00;100795.44;;;11.45;100.00
9421;BME280;4749;51.398;5.466;2024-02-16T01:23:27;100789.28;;;11.42;100.00
9421;BME280;4749;51.398;5.466;2024-02-16T01:25:55;100791.91;;;11.39;100.00
9421;BME280;4749;51.398;5.466;2024-02-16T01:28:22;100789.31;;;11.36;100.00
9421;BME280;4749;51.398;5.466;2024-02-16T01:30:50;100785.78;;;11.32;100.00
9421;BME280;4749;51.398;5.466;2024-02-16T01:33:19;100783.16;;;11.27;100.00
9421;BME280;4749;51.398;5.466;2024-02-16T01:35:46;100784.03;;;11.23;100.00
9421;BME280;4749;51.398;5.466;2024-02-16T01:38:14;100770.03;;;11.20;100.00
9421;BME280;4749;51.398;5.466;2024-02-16T01:40:41;100771.78;;;11.19;100.00
9421;BME280;4749;51.398;5.466;2024-02-16T01:43:08;100768.25;;;11.17;100.00
9421;BME280;4749;51.398;5.466;2024-02-16T01:45:35;100765.63;;;11.16;100.00
9421;BME280;4749;51.398;5.466;2024-02-16T01:48:02;100763.88;;;11.15;100.00
9421;BME280;4749;51.398;5.466;2024-02-16T01:50:30;100764.75;;;11.14;100.00
9421;BME280;4749;51.398;5.466;2024-02-16T01:53:00;100763.00;;;11.14;100.00
9421;BME280;4749;51.398;5.466;2024-02-16T01:55:28;100762.13;;;11.14;100.00
9421;BME280;4749;51.398;5.466;2024-02-16T01:57:55;100769.13;;;11.15;100.00
9421;BME280;4749;51.398;5.466;2024-02-16T02:00:24;100775.28;;;11.15;100.00
9421;BME280;4749;51.398;5.466;2024-02-16T02:02:51;100774.38;;;11.16;100.00
9421;BME280;4749;51.398;5.466;2024-02-16T02:05:19;100770.00;;;11.15;100.00
9421;BME280;4749;51.398;5.466;2024-02-16T02:07:46;100775.28;;;11.15;100.00
9421;BME280;4749;51.398;5.466;2024-02-16T02:10:13;100763.88;;;11.12;100.00
9421;BME280;4749;51.398;5.466;2024-02-16T02:12:42;100771.78;;;11.13;100.00
9421;BME280;4749;51.398;5.466;2024-02-16T02:15:09;100764.75;;;11.14;100.00
9421;BME280;4749;51.398;5.466;2024-02-16T02:17:37;100767.38;;;11.17;100.00
9421;BME280;4749;51.398;5.466;2024-02-16T02:20:06;100763.00;;;11.19;100.00
9421;BME280;4749;51.398;5.466;2024-02-16T02:22:38;100761.25;;;11.22;100.00
9421;BME280;4749;51.398;5.466;2024-02-16T02:25:06;100758.59;;;11.25;100.00
9421;BME280;4749;51.398;5.466;2024-02-16T02:27:33;100748.94;;;11.29;100.00
9421;BME280;4749;51.398;5.466;2024-02-16T02:30:00;100756.84;;;11.32;100.00
9421;BME280;4749;51.398;5.466;2024-02-16T02:32:27;100753.34;;;11.36;100.00
9421;BME280;4749;51.398;5.466;2024-02-16T02:34:56;100753.31;;;11.41;100.00
9421;BME280;4749;51.398;5.466;2024-02-16T02:37:23;100755.06;;;11.45;100.00
9421;BME280;4749;51.398;5.466;2024-02-16T02:39:50;100750.66;;;11.48;100.00
9421;BME280;4749;51.398;5.466;2024-02-16T02:42:17;100748.00;;;11.50;100.00
9421;BME280;4749;51.398;5.466;2024-02-16T02:44:44;100741.00;;;11.50;100.00
9421;BME280;4749;51.398;5.466;2024-02-16T02:47:17;100733.97;;;11.49;100.00
9421;BME280;4749;51.398;5.466;2024-02-16T02:49:44;100739.25;;;11.46;100.00
9421;BME280;4749;51.398;5.466;2024-02-16T02:52:12;100738.38;;;11.46;100.00
9421;BME280;4749;51.398;5.466;2024-02-16T02:54:39;100735.75;;;11.43;100.00
9421;BME280;4749;51.398;5.466;2024-02-16T02:57:06;100741.00;;;11.41;100.00
9421;BME280;4749;51.398;5.466;2024-02-16T02:59:33;100730.50;;;11.38;100.00
9421;BME280;4749;51.398;5.466;2024-02-16T03:02:01;100727.88;;;11.37;100.00
9421;BME280;4749;51.398;5.466;2024-02-16T03:04:28;100725.25;;;11.38;100.00
9421;BME280;4749;51.398;5.466;2024-02-16T03:06:55;100722.63;;;11.37;100.00
9421;BME280;4749;51.398;5.466;2024-02-16T03:09:23;100716.47;;;11.36;100.00
9421;BME280;4749;51.398;5.466;2024-02-16T03:11:50;100719.97;;;11.38;100.00
9421;BME280;4749;51.398;5.466;2024-02-16T03:14:17;100715.56;;;11.40;100.00
9421;BME280;4749;51.398;5.466;2024-02-16T03:16:45;100717.31;;;11.43;100.00
9421;BME280;4749;51.398;5.466;2024-02-16T03:19:12;100715.56;;;11.46;100.00
9421;BME280;4749;51.398;5.466;2024-02-16T03:21:39;100726.94;;;11.50;100.00
9421;BME280;4749;51.398;5.466;2024-02-16T03:24:06;100721.69;;;11.53;100.00
9421;BME280;4749;51.398;5.466;2024-02-16T03:26:34;100726.06;;;11.57;100.00
9421;BME280;4749;51.398;5.466;2024-02-16T03:29:01;100722.56;;;11.56;100.00
9421;BME280;4749;51.398;5.466;2024-02-16T03:31:28;100713.75;;;11.59;100.00
9421;BME280;4749;51.398;5.466;2024-02-16T03:33:56;100718.16;;;11.63;100.00
9421;BME280;4749;51.398;5.466;2024-02-16T03:36:24;100716.38;;;11.65;100.00
9421;BME280;4749;51.398;5.466;2024-02-16T03:38:52;100722.50;;;11.67;100.00
9421;BME280;4749;51.398;5.466;2024-02-16T03:41:21;100726.91;;;11.70;100.00
9421;BME280;4749;51.398;5.466;2024-02-16T03:43:50;100718.13;;;11.71;100.00
9421;BME280;4749;51.398;5.466;2024-02-16T03:46:18;100726.91;;;11.71;100.00
9421;BME280;4749;51.398;5.466;2024-02-16T03:48:45;100719.84;;;11.73;100.00
9421;BME280;4749;51.398;5.466;2024-02-16T03:51:13;100729.50;;;11.76;100.00
9421;BME280;4749;51.398;5.466;2024-02-16T03:53:40;100724.25;;;11.80;100.00
9421;BME280;4749;51.398;5.466;2024-02-16T03:56:07;100718.09;;;11.83;100.00
9421;BME280;4749;51.398;5.466;2024-02-16T03:58:36;100713.69;;;11.85;100.00
9421;BME280;4749;51.398;5.466;2024-02-16T04:01:04;100715.44;;;11.89;100.00
9421;BME280;4749;51.398;5.466;2024-02-16T04:03:34;100713.69;;;11.90;100.00
9421;BME280;4749;51.398;5.466;2024-02-16T04:06:02;100722.44;;;11.92;100.00
9421;BME280;4749;51.398;5.466;2024-02-16T04:08:31;100713.66;;;11.91;100.00
9421;BME280;4749;51.398;5.466;2024-02-16T04:10:58;100712.78;;;11.91;100.00
9421;BME280;4749;51.398;5.466;2024-02-16T04:13:25;100718.94;;;11.90;100.00
9421;BME280;4749;51.398;5.466;2024-02-16T04:15:53;100715.44;;;11.89;100.00
9421;BME280;4749;51.398;5.466;2024-02-16T04:18:21;100723.34;;;11.88;100.00
9421;BME280;4749;51.398;5.466;2024-02-16T04:20:48;100720.72;;;11.89;100.00
9421;BME280;4749;51.398;5.466;2024-02-16T04:23:16;100725.09;;;11.89;100.00
9421;BME280;4749;51.398;5.466;2024-02-16T04:25:43;100722.44;;;11.90;100.00
9421;BME280;4749;51.398;5.466;2024-02-16T04:28:10;100726.84;;;11.90;100.00
9421;BME280;4749;51.398;5.466;2024-02-16T04:30:37;100729.50;;;11.88;100.00
9421;BME280;4749;51.398;5.466;2024-02-16T04:33:05;100729.50;;;11.87;100.00
9421;BME280;4749;51.398;5.466;2024-02-16T04:35:32;100728.63;;;11.86;100.00
9421;BME280;4749;51.398;5.466;2024-02-16T04:38:00;100729.50;;;11.85;100.00
9421;BME280;4749;51.398;5.466;2024-02-16T04:40:27;100731.25;;;11.84;100.00
9421;BME280;4749;51.398;5.466;2024-02-16T04:42:54;100730.38;;;11.84;100.00
9421;BME280;4749;51.398;5.466;2024-02-16T04:45:21;100733.91;;;11.86;100.00
9421;BME280;4749;51.398;5.466;2024-02-16T04:47:49;100731.28;;;11.86;100.00
9421;BME280;4749;51.398;5.466;2024-02-16T04:50:16;100735.66;;;11.86;100.00
9421;BME280;4749;51.398;5.466;2024-02-16T04:52:43;100734.75;;;11.88;100.00
9421;BME280;4749;51.398;5.466;2024-02-16T04:55:11;100733.88;;;11.89;100.00
9421;BME280;4749;51.398;5.466;2024-02-16T04:57:38;100733.88;;;11.89;100.00
9421;BME280;4749;51.398;5.466;2024-02-16T05:00:06;100734.75;;;11.90;100.00
9421;BME280;4749;51.398;5.466;2024-02-16T05:02:36;100733.88;;;11.89;100.00
9421;BME280;4749;51.398;5.466;2024-02-16T05:05:04;100732.09;;;11.93;100.00
9421;BME280;4749;51.398;5.466;2024-02-16T05:07:31;100731.22;;;11.97;100.00
9421;BME280;4749;51.398;5.466;2024-02-16T05:09:59;100733.81;;;12.00;100.00
9421;BME280;4749;51.398;5.466;2024-02-16T05:12:26;100732.94;;;11.99;100.00
9421;BME280;4749;51.398;5.466;2024-02-16T05:14:54;100730.31;;;12.02;100.00
9421;BME280;4749;51.398;5.466;2024-02-16T05:17:21;100725.00;;;12.07;100.00
9421;BME280;4749;51.398;5.466;2024-02-16T05:19:52;100724.13;;;12.11;100.00
9421;BME280;4749;51.398;5.466;2024-02-16T05:22:21;100731.09;;;12.15;100.00
9421;BME280;4749;51.398;5.466;2024-02-16T05:24:51;100730.19;;;12.18;100.00
9421;BME280;4749;51.398;5.466;2024-02-16T05:27:18;100737.22;;;12.22;100.00
9421;BME280;4749;51.398;5.466;2024-02-16T05:29:46;100735.47;;;12.22;100.00
9421;BME280;4749;51.398;5.466;2024-02-16T05:32:14;100734.56;;;12.25;100.00
9421;BME280;4749;51.398;5.466;2024-02-16T05:34:41;100726.63;;;12.29;100.00
9421;BME280;4749;51.398;5.466;2024-02-16T05:37:09;100726.63;;;12.31;100.00
9421;BME280;4749;51.398;5.466;2024-02-16T05:39:37;100729.22;;;12.35;100.00
9421;BME280;4749;51.398;5.466;2024-02-16T05:42:20;100731.84;;;12.35;100.00
9421;BME280;4749;51.398;5.466;2024-02-16T05:44:51;100734.50;;;12.38;100.00
9421;BME280;4749;51.398;5.466;2024-02-16T05:47:18;100733.59;;;12.41;100.00
9421;BME280;4749;51.398;5.466;2024-02-16T05:49:46;100744.09;;;12.44;100.00
9421;BME280;4749;51.398;5.466;2024-02-16T05:52:14;100752.91;;;12.45;100.00
9421;BME280;4749;51.398;5.466;2024-02-16T05:54:48;100739.69;;;12.48;100.00
9421;BME280;4749;51.398;5.466;2024-02-16T05:57:16;100737.91;;;12.50;100.00
9421;BME280;4749;51.398;5.466;2024-02-16T05:59:45;100748.44;;;12.56;100.00
9421;BME280;4749;51.398;5.466;2024-02-16T06:02:12;100748.41;;;12.62;100.00
9421;BME280;4749;51.398;5.466;2024-02-16T06:04:39;100747.44;;;12.69;100.00
9421;BME280;4749;51.398;5.466;2024-02-16T06:07:07;100753.56;;;12.76;100.00
9421;BME280;4749;51.398;5.466;2024-02-16T06:09:35;100755.25;;;12.83;100.00
9421;BME280;4749;51.398;5.466;2024-02-16T06:12:05;100756.13;;;12.83;100.00
9421;BME280;4749;51.398;5.466;2024-02-16T06:14:34;100763.13;;;12.86;100.00
9421;BME280;4749;51.398;5.466;2024-02-16T06:17:02;100767.53;;;12.88;100.00
9421;BME280;4749;51.398;5.466;2024-02-16T06:19:29;100765.75;;;12.90;100.00
9421;BME280;4749;51.398;5.466;2024-02-16T06:21:57;100775.41;;;12.91;100.00
9421;BME280;4749;51.398;5.466;2024-02-16T06:24:24;100773.66;;;12.92;100.00
9421;BME280;4749;51.398;5.466;2024-02-16T06:26:52;100778.00;;;12.94;100.00
9421;BME280;4749;51.398;5.466;2024-02-16T06:29:23;100775.38;;;12.94;100.00
9421;BME280;4749;51.398;5.466;2024-02-16T06:31:51;100784.19;;;12.96;100.00
9421;BME280;4749;51.398;5.466;2024-02-16T06:34:19;100779.78;;;12.95;100.00
9421;BME280;4749;51.398;5.466;2024-02-16T06:36:48;100791.22;;;12.94;100.00
9421;BME280;4749;51.398;5.466;2024-02-16T06:39:16;100803.53;;;12.95;100.00
9421;BME280;4749;51.398;5.466;2024-02-16T06:41:47;100790.34;;;12.95;100.00
9421;BME280;4749;51.398;5.466;2024-02-16T06:44:15;100792.09;;;12.93;100.00
9421;BME280;4749;51.398;5.466;2024-02-16T06:46:44;100803.53;;;12.95;100.00
9421;BME280;4749;51.398;5.466;2024-02-16T06:49:11;100795.63;;;12.97;100.00
9421;BME280;4749;51.398;5.466;2024-02-16T06:51:38;100801.75;;;12.99;100.00
9421;BME280;4749;51.398;5.466;2024-02-16T06:54:05;100806.13;;;13.00;100.00
9421;BME280;4749;51.398;5.466;2024-02-16T06:56:34;100801.72;;;13.01;100.00
9421;BME280;4749;51.398;5.466;2024-02-16T06:59:03;100804.38;;;13.01;100.00
9421;BME280;4749;51.398;5.466;2024-02-16T07:01:30;100813.19;;;13.00;100.00
9421;BME280;4749;51.398;5.466;2024-02-16T07:03:57;100816.69;;;13.00;100.00
9421;BME280;4749;51.398;5.466;2024-02-16T07:06:24;100821.06;;;13.01;100.00
9421;BME280;4749;51.398;5.466;2024-02-16T07:08:53;100822.81;;;13.02;100.00
9421;BME280;4749;51.398;5.466;2024-02-16T07:11:21;100827.22;;;13.05;100.00
9421;BME280;4749;51.398;5.466;2024-02-16T07:13:48;100828.94;;;13.07;100.00
9421;BME280;4749;51.398;5.466;2024-02-16T07:16:16;100838.59;;;13.13;100.00
9421;BME280;4749;51.398;5.466;2024-02-16T07:18:46;100839.47;;;13.15;100.00
9421;BME280;4749;51.398;5.466;2024-02-16T07:21:14;100846.47;;;13.17;100.00
9421;BME280;4749;51.398;5.466;2024-02-16T07:23:44;100842.94;;;13.20;100.00
9421;BME280;4749;51.398;5.466;2024-02-16T07:26:11;100846.47;;;13.22;100.00
9421;BME280;4749;51.398;5.466;2024-02-16T07:28:38;100850.88;;;13.23;100.00
9421;BME280;4749;51.398;5.466;2024-02-16T07:31:06;100854.34;;;13.25;100.00
9421;BME280;4749;51.398;5.466;2024-02-16T07:33:36;100859.63;;;13.27;100.00
9421;BME280;4749;51.398;5.466;2024-02-16T07:36:03;100857.88;;;13.29;100.00
9421;BME280;4749;51.398;5.466;2024-02-16T07:38:31;100864.00;;;13.32;100.00
9421;BME280;4749;51.398;5.466;2024-02-16T07:40:59;100864.84;;;13.34;100.00
9421;BME280;4749;51.398;5.466;2024-02-16T07:43:27;100866.56;;;13.37;100.00
9421;BME280;4749;51.398;5.466;2024-02-16T07:45:55;100868.31;;;13.41;100.00
9421;BME280;4749;51.398;5.466;2024-02-16T07:48:22;100862.13;;;13.43;100.00
9421;BME280;4749;51.398;5.466;2024-02-16T07:50:49;100868.28;;;13.45;100.00
9421;BME280;4749;51.398;5.466;2024-02-16T07:53:17;100874.44;;;13.47;100.00
9421;BME280;4749;51.398;5.466;2024-02-16T07:55:44;100872.66;;;13.48;100.00
9421;BME280;4749;51.398;5.466;2024-02-16T07:58:12;100879.72;;;13.47;100.00
9421;BME280;4749;51.398;5.466;2024-02-16T08:00:39;100873.56;;;13.47;100.00
9421;BME280;4749;51.398;5.466;2024-02-16T08:03:07;100877.91;;;13.49;100.00
9421;BME280;4749;51.398;5.466;2024-02-16T08:05:34;100875.28;;;13.49;100.00
9421;BME280;4749;51.398;5.466;2024-02-16T08:08:02;100878.78;;;13.51;100.00
9421;BME280;4749;51.398;5.466;2024-02-16T08:10:30;100891.97;;;13.55;100.00
9421;BME280;4749;51.398;5.466;2024-02-16T08:12:57;100888.44;;;13.56;100.00
9421;BME280;4749;51.398;5.466;2024-02-16T08:15:25;100891.94;;;13.58;100.00
9421;BME280;4749;51.398;5.466;2024-02-16T08:17:53;100897.19;;;13.61;100.00
9421;BME280;4749;51.398;5.466;2024-02-16T08:20:21;100898.06;;;13.63;100.00
9421;BME280;4749;51.398;5.466;2024-02-16T08:22:48;100909.50;;;13.63;100.00
9421;BME280;4749;51.398;5.466;2024-02-16T08:25:15;100916.47;;;13.69;100.00
9421;BME280;4749;51.398;5.466;2024-02-16T08:27:43;100920.00;;;13.72;100.00
9421;BME280;4749;51.398;5.466;2024-02-16T08:30:11;100925.22;;;13.77;100.00
9421;BME280;4749;51.398;5.466;2024-02-16T08:32:39;100923.41;;;13.82;100.00
9421;BME280;4749;51.398;5.466;2024-02-16T08:35:06;100940.13;;;13.86;100.00
9421;BME280;4749;51.398;5.466;2024-02-16T08:37:34;100940.97;;;13.86;100.00
9421;BME280;4749;51.398;5.466;2024-02-16T08:40:02;100939.22;;;13.90;100.00
9421;BME280;4749;51.398;5.466;2024-02-16T08:42:31;100949.75;;;13.93;100.00
9421;BME280;4749;51.398;5.466;2024-02-16T08:44:59;100955.00;;;13.96;100.00
9421;BME280;4749;51.398;5.466;2024-02-16T08:47:27;100956.72;;;14.00;100.00
9421;BME280;4749;51.398;5.466;2024-02-16T08:49:54;100953.16;;;14.05;100.00
9421;BME280;4749;51.398;5.466;2024-02-16T08:52:22;100960.19;;;14.06;100.00
9421;BME280;4749;51.398;5.466;2024-02-16T08:54:50;100965.47;;;14.08;100.00
9421;BME280;4749;51.398;5.466;2024-02-16T08:57:18;100968.06;;;14.11;100.00
9421;BME280;4749;51.398;5.466;2024-02-16T08:59:46;100965.41;;;14.14;100.00
9421;BME280;4749;51.398;5.466;2024-02-16T09:02:13;100961.84;;;14.17;100.00
9421;BME280;4749;51.398;5.466;2024-02-16T09:04:40;100963.56;;;14.21;100.00
9421;BME280;4749;51.398;5.466;2024-02-16T09:07:08;100971.47;;;14.24;100.00
9421;BME280;4749;51.398;5.466;2024-02-16T09:09:35;100970.56;;;14.26;100.00
9421;BME280;4749;51.398;5.466;2024-02-16T09:12:03;100979.28;;;14.34;100.00
9421;BME280;4749;51.398;5.466;2024-02-16T09:14:30;100977.41;;;14.44;100.00
9421;BME280;4749;51.398;5.466;2024-02-16T09:16:58;100983.50;;;14.57;100.00
9421;BME280;4749;51.398;5.466;2024-02-16T09:19:26;100982.53;;;14.64;100.00
9421;BME280;4749;51.398;5.466;2024-02-16T09:21:54;100986.78;;;14.76;100.00
9421;BME280;4749;51.398;5.466;2024-02-16T09:24:24;100987.50;;;14.90;100.00
9421;BME280;4749;51.398;5.466;2024-02-16T09:26:57;100997.13;;;14.97;100.00
9421;BME280;4749;51.398;5.466;2024-02-16T09:29:25;100997.06;;;15.00;100.00
9421;BME280;4749;51.398;5.466;2024-02-16T09:31:52;100997.03;;;15.02;100.00
9421;BME280;4749;51.398;5.466;2024-02-16T09:34:19;101001.44;;;15.03;100.00
9421;BME280;4749;51.398;5.466;2024-02-16T09:36:47;101004.97;;;15.03;100.00
9421;BME280;4749;51.398;5.466;2024-02-16T09:39:14;101005.03;;;14.99;100.00
9421;BME280;4749;51.398;5.466;2024-02-16T09:41:42;101021.03;;;14.89;100.00
9421;BME280;4749;51.398;5.466;2024-02-16T09:44:10;101029.09;;;14.79;100.00
9421;BME280;4749;51.398;5.466;2024-02-16T09:46:37;101037.16;;;14.68;100.00
9421;BME280;4749;51.398;5.466;2024-02-16T09:49:05;101036.38;;;14.58;100.00
9421;BME280;4749;51.398;5.466;2024-02-16T09:51:36;101038.22;;;14.52;100.00
9421;BME280;4749;51.398;5.466;2024-02-16T09:54:04;101045.31;;;14.48;100.00
9421;BME280;4749;51.398;5.466;2024-02-16T09:56:32;101050.63;;;14.47;100.00
9421;BME280;4749;51.398;5.466;2024-02-16T09:59:00;101053.28;;;14.47;100.00
9421;BME280;4749;51.398;5.466;2024-02-16T10:01:27;101058.56;;;14.42;100.00
9421;BME280;4749;51.398;5.466;2024-02-16T10:04:06;101060.38;;;14.35;100.00
9421;BME280;4749;51.398;5.466;2024-02-16T10:06:47;101063.97;;;14.30;100.00
9421;BME280;4749;51.398;5.466;2024-02-16T10:09:25;101071.94;;;14.25;100.00
9421;BME280;4749;51.398;5.466;2024-02-16T10:11:52;101080.81;;;14.21;100.00
9421;BME280;4749;51.398;5.466;2024-02-16T10:14:20;101077.25;;;14.22;100.00
9421;BME280;4749;51.398;5.466;2024-02-16T10:17:03;101078.94;;;14.31;100.00
9421;BME280;4749;51.398;5.466;2024-02-16T10:19:31;101078.88;;;14.37;100.00
9421;BME280;4749;51.398;5.466;2024-02-16T10:22:10;101092.09;;;14.40;100.00
9421;BME280;4749;51.398;5.466;2024-02-16T10:24:39;101088.53;;;14.46;100.00
9421;BME280;4749;51.398;5.466;2024-02-16T10:27:17;101099.06;;;14.52;100.00
9421;BME280;4749;51.398;5.466;2024-02-16T10:29:47;101099.00;;;14.58;100.00
9421;BME280;4749;51.398;5.466;2024-02-16T10:32:18;101106.84;;;14.67;100.00
9421;BME280;4749;51.398;5.466;2024-02-16T10:34:47;101109.47;;;14.69;100.00
9421;BME280;4749;51.398;5.466;2024-02-16T10:37:17;101104.22;;;14.66;100.00
9421;BME280;4749;51.398;5.466;2024-02-16T10:39:45;101113.91;;;14.67;100.00
9421;BME280;4749;51.398;5.466;2024-02-16T10:42:15;101118.28;;;14.69;100.00
9421;BME280;4749;51.398;5.466;2024-02-16T10:44:44;101126.28;;;14.66;100.00
9421;BME280;4749;51.398;5.466;2024-02-16T10:47:12;101126.34;;;14.58;100.00
9421;BME280;4749;51.398;5.466;2024-02-16T10:49:39;101132.56;;;14.51;100.00
9421;BME280;4749;51.398;5.466;2024-02-16T10:52:07;101144.06;;;14.44;100.00
9421;BME280;4749;51.398;5.466;2024-02-16T10:54:37;101148.50;;;14.37;100.00
9421;BME280;4749;51.398;5.466;2024-02-16T10:57:08;101149.47;;;14.32;100.00
9421;BME280;4749;51.398;5.466;2024-02-16T10:59:43;101149.47;;;14.30;100.00
9421;BME280;4749;51.398;5.466;2024-02-16T11:02:11;101152.97;;;14.32;100.00
9421;BME280;4749;51.398;5.466;2024-02-16T11:04:40;101153.81;;;14.36;100.00
9421;BME280;4749;51.398;5.466;2024-02-16T11:07:12;101155.53;;;14.43;100.00
9421;BME280;4749;51.398;5.466;2024-02-16T11:09:44;101149.34;;;14.49;100.00
9421;BME280;4749;51.398;5.466;2024-02-16T11:12:13;101159.97;;;14.47;100.00
9421;BME280;4749;51.398;5.466;2024-02-16T11:14:45;101166.13;;;14.43;100.00
9421;BME280;4749;51.398;5.466;2024-02-16T11:17:22;101169.66;;;14.42;100.00
9421;BME280;4749;51.398;5.466;2024-02-16T11:19:50;101172.31;;;14.37;100.00
9421;BME280;4749;51.398;5.466;2024-02-16T11:22:19;101167.94;;;14.38;100.00
9421;BME280;4749;51.398;5.466;2024-02-16T11:24:49;101170.53;;;14.43;100.00
9421;BME280;4749;51.398;5.466;2024-02-16T11:27:18;101172.31;;;14.42;100.00
9421;BME280;4749;51.398;5.466;2024-02-16T11:29:49;101175.84;;;14.40;100.00
9421;BME280;4749;51.398;5.466;2024-02-16T11:32:19;101185.53;;;14.42;100.00
9421;BME280;4749;51.398;5.466;2024-02-16T11:34:47;101186.41;;;14.43;100.00
9421;BME280;4749;51.398;5.466;2024-02-16T11:37:16;101188.16;;;14.44;100.00
9421;BME280;4749;51.398;5.466;2024-02-16T11:39:44;101189.91;;;14.43;100.00
9421;BME280;4749;51.398;5.466;2024-02-16T11:42:18;101189.91;;;14.43;100.00
9421;BME280;4749;51.398;5.466;2024-02-16T11:44:54;101201.41;;;14.45;100.00
9421;BME280;4749;51.398;5.466;2024-02-16T11:47:25;101205.78;;;14.43;100.00
9421;BME280;4749;51.398;5.466;2024-02-16T11:52:33;101212.88;;;14.36;100.00
9421;BME280;4749;51.398;5.466;2024-02-16T11:55:02;101219.09;;;14.32;100.00
9421;BME280;4749;51.398;5.466;2024-02-16T11:57:32;101220.88;;;14.27;100.00
9421;BME280;4749;51.398;5.466;2024-02-16T12:00:02;101224.47;;;14.22;100.00
9421;BME280;4749;51.398;5.466;2024-02-16T12:02:35;101225.38;;;14.16;100.00
9421;BME280;4749;51.398;5.466;2024-02-16T12:05:04;101222.75;;;14.15;100.00
9421;BME280;4749;51.398;5.466;2024-02-16T12:07:33;101238.59;;;14.12;100.00
9421;BME280;4749;51.398;5.466;2024-02-16T12:10:03;101236.88;;;14.07;100.00
9421;BME280;4749;51.398;5.466;2024-02-16T12:12:33;101239.50;;;14.11;100.00
9421;BME280;4749;51.398;5.466;2024-02-16T12:15:07;101243.91;;;14.12;100.00
9421;BME280;4749;51.398;5.466;2024-02-16T12:17:35;101253.59;;;14.16;100.00
9421;BME280;4749;51.398;5.466;2024-02-16T12:20:02;101253.56;;;14.17;100.00
9421;BME280;4749;51.398;5.466;2024-02-16T12:22:30;101250.94;;;14.16;100.00
9421;BME280;4749;51.398;5.466;2024-02-16T12:24:57;101258.88;;;14.16;100.00
9421;BME280;4749;51.398;5.466;2024-02-16T12:27:28;101267.72;;;14.13;100.00
9421;BME280;4749;51.398;5.466;2024-02-16T12:29:55;101269.50;;;14.06;100.00
9421;BME280;4749;51.398;5.466;2024-02-16T12:32:22;101271.28;;;14.06;100.00
9421;BME280;4749;51.398;5.466;2024-02-16T12:34:50;101267.72;;;14.07;100.00
9421;BME280;4749;51.398;5.466;2024-02-16T12:37:17;101278.28;;;14.13;100.00
9421;BME280;4749;51.398;5.466;2024-02-16T12:39:45;101279.09;;;14.20;100.00
9421;BME280;4749;51.398;5.466;2024-02-16T12:42:14;101281.75;;;14.24;100.00
9421;BME280;4749;51.398;5.466;2024-02-16T12:44:42;101287.91;;;14.26;100.00
9421;BME280;4749;51.398;5.466;2024-02-16T12:47:09;101294.06;;;14.25;100.00
9421;BME280;4749;51.398;5.466;2024-02-16T12:49:36;101301.16;;;14.22;100.00
9421;BME280;4749;51.398;5.466;2024-02-16T12:52:04;101302.91;;;14.20;100.00
9421;BME280;4749;51.398;5.466;2024-02-16T12:54:31;101305.59;;;14.14;100.00
9421;BME280;4749;51.398;5.466;2024-02-16T12:57:00;101317.91;;;14.18;100.00
9421;BME280;4749;51.398;5.466;2024-02-16T12:59:27;101312.63;;;14.22;100.00
9421;BME280;4749;51.398;5.466;2024-02-16T13:01:56;101318.78;;;14.21;100.00
9421;BME280;4749;51.398;5.466;2024-02-16T13:04:23;101325.84;;;14.18;100.00
9421;BME280;4749;51.398;5.466;2024-02-16T13:06:51;101328.53;;;14.13;100.00
9421;BME280;4749;51.398;5.466;2024-02-16T13:09:20;101329.38;;;14.12;100.00
9421;BME280;4749;51.398;5.466;2024-02-16T13:11:47;101336.41;;;14.18;100.00